sensor_id;sensor_type;location;lat;lon;timestamp;P1;durP1;ratioP1;P2;durP2;ratioP2
41921;SDS011;27609;51.002;5.354;2023-09-19T00:00:37;9.38;;;1.90;;
41921;SDS011;27609;51.002;5.354;2023-09-19T00:03:05;11.27;;;2.60;;
41921;SDS011;27609;51.002;5.354;2023-09-19T00:05:33;10.35;;;2.22;;
41921;SDS011;27609;51.002;5.354;2023-09-19T00:08:00;11.65;;;3.15;;
41921;SDS011;27609;51.002;5.354;2023-09-19T00:10:30;9.45;;;1.77;;
41921;SDS011;27609;51.002;5.354;2023-09-19T00:12:57;7.22;;;2.35;;
41921;SDS011;27609;51.002;5.354;2023-09-19T00:15:30;9.98;;;2.38;;
41921;SDS011;27609;51.002;5.354;2023-09-19T00:18:03;9.57;;;2.72;;
41921;SDS011;27609;51.002;5.354;2023-09-19T00:20:35;13.23;;;2.20;;
41921;SDS011;27609;51.002;5.354;2023-09-19T00:23:01;8.80;;;1.92;;
41921;SDS011;27609;51.002;5.354;2023-09-19T00:25:37;13.40;;;2.03;;
41921;SDS011;27609;51.002;5.354;2023-09-19T00:28:06;9.43;;;2.50;;
41921;SDS011;27609;51.002;5.354;2023-09-19T00:30:32;9.13;;;2.13;;
41921;SDS011;27609;51.002;5.354;2023-09-19T00:33:03;11.95;;;2.20;;
41921;SDS011;27609;51.002;5.354;2023-09-19T00:35:32;10.73;;;2.10;;
41921;SDS011;27609;51.002;5.354;2023-09-19T00:37:58;11.85;;;2.50;;
41921;SDS011;27609;51.002;5.354;2023-09-19T00:40:24;11.52;;;2.75;;
41921;SDS011;27609;51.002;5.354;2023-09-19T00:42:51;10.90;;;2.08;;
41921;SDS011;27609;51.002;5.354;2023-09-19T00:45:17;4.82;;;2.00;;
41921;SDS011;27609;51.002;5.354;2023-09-19T00:47:46;10.25;;;2.08;;
41921;SDS011;27609;51.002;5.354;2023-09-19T00:50:14;8.95;;;2.42;;
41921;SDS011;27609;51.002;5.354;2023-09-19T00:52:42;9.57;;;2.33;;
41921;SDS011;27609;51.002;5.354;2023-09-19T00:55:09;7.28;;;2.20;;
41921;SDS011;27609;51.002;5.354;2023-09-19T00:57:36;7.13;;;1.98;;
41921;SDS011;27609;51.002;5.354;2023-09-19T01:00:03;8.95;;;2.30;;
41921;SDS011;27609;51.002;5.354;2023-09-19T01:02:31;13.20;;;2.78;;
41921;SDS011;27609;51.002;5.354;2023-09-19T01:04:57;13.50;;;2.40;;
41921;SDS011;27609;51.002;5.354;2023-09-19T01:07:25;7.13;;;2.05;;
41921;SDS011;27609;51.002;5.354;2023-09-19T01:09:50;18.02;;;2.67;;
41921;SDS011;27609;51.002;5.354;2023-09-19T01:12:20;13.13;;;1.73;;
41921;SDS011;27609;51.002;5.354;2023-09-19T01:14:55;11.07;;;1.90;;
41921;SDS011;27609;51.002;5.354;2023-09-19T01:17:32;7.53;;;1.98;;
41921;SDS011;27609;51.002;5.354;2023-09-19T01:26:05;15.15;;;2.88;;
41921;SDS011;27609;51.002;5.354;2023-09-19T01:28:53;8.40;;;2.17;;
41921;SDS011;27609;51.002;5.354;2023-09-19T01:31:31;8.95;;;2.08;;
41921;SDS011;27609;51.002;5.354;2023-09-19T01:34:01;14.77;;;2.33;;
41921;SDS011;27609;51.002;5.354;2023-09-19T01:36:36;10.63;;;2.20;;
41921;SDS011;27609;51.002;5.354;2023-09-19T01:39:07;12.00;;;2.63;;
41921;SDS011;27609;51.002;5.354;2023-09-19T01:47:31;12.25;;;2.03;;
41921;SDS011;27609;51.002;5.354;2023-09-19T01:52:47;13.02;;;2.17;;
41921;SDS011;27609;51.002;5.354;2023-09-19T01:55:17;8.23;;;2.67;;
41921;SDS011;27609;51.002;5.354;2023-09-19T01:57:48;9.13;;;2.33;;
41921;SDS011;27609;51.002;5.354;2023-09-19T02:00:19;9.35;;;2.15;;
41921;SDS011;27609;51.002;5.354;2023-09-19T02:02:48;12.82;;;2.95;;
41921;SDS011;27609;51.002;5.354;2023-09-19T02:05:24;7.15;;;1.90;;
41921;SDS011;27609;51.002;5.354;2023-09-19T02:07:51;12.75;;;1.95;;
41921;SDS011;27609;51.002;5.354;2023-09-19T02:10:18;8.88;;;2.95;;
41921;SDS011;27609;51.002;5.354;2023-09-19T02:12:44;11.80;;;2.28;;
41921;SDS011;27609;51.002;5.354;2023-09-19T02:15:10;9.70;;;2.10;;
41921;SDS011;27609;51.002;5.354;2023-09-19T02:17:36;8.75;;;2.17;;
41921;SDS011;27609;51.002;5.354;2023-09-19T02:20:03;13.90;;;2.28;;
41921;SDS011;27609;51.002;5.354;2023-09-19T02:22:35;8.95;;;1.88;;
41921;SDS011;27609;51.002;5.354;2023-09-19T02:25:02;10.82;;;2.42;;
41921;SDS011;27609;51.002;5.354;2023-09-19T02:27:30;11.43;;;2.40;;
41921;SDS011;27609;51.002;5.354;2023-09-19T02:29:56;16.95;;;2.35;;
41921;SDS011;27609;51.002;5.354;2023-09-19T02:32:21;8.88;;;2.08;;
41921;SDS011;27609;51.002;5.354;2023-09-19T02:34:48;10.32;;;2.33;;
41921;SDS011;27609;51.002;5.354;2023-09-19T02:37:13;8.13;;;2.72;;
41921;SDS011;27609;51.002;5.354;2023-09-19T02:39:41;11.38;;;2.45;;
41921;SDS011;27609;51.002;5.354;2023-09-19T02:42:07;5.70;;;1.92;;
41921;SDS011;27609;51.002;5.354;2023-09-19T02:44:32;11.27;;;2.28;;
41921;SDS011;27609;51.002;5.354;2023-09-19T02:46:58;15.10;;;2.38;;
41921;SDS011;27609;51.002;5.354;2023-09-19T02:49:24;13.20;;;2.25;;
41921;SDS011;27609;51.002;5.354;2023-09-19T02:51:50;11.40;;;2.25;;
41921;SDS011;27609;51.002;5.354;2023-09-19T02:54:16;11.68;;;3.03;;
41921;SDS011;27609;51.002;5.354;2023-09-19T02:56:42;8.27;;;2.20;;
41921;SDS011;27609;51.002;5.354;2023-09-19T02:59:08;9.10;;;2.58;;
41921;SDS011;27609;51.002;5.354;2023-09-19T03:01:37;13.45;;;2.17;;
41921;SDS011;27609;51.002;5.354;2023-09-19T03:04:03;10.57;;;2.13;;
41921;SDS011;27609;51.002;5.354;2023-09-19T03:06:36;13.38;;;2.25;;
41921;SDS011;27609;51.002;5.354;2023-09-19T03:09:03;11.32;;;2.45;;
41921;SDS011;27609;51.002;5.354;2023-09-19T03:11:31;9.25;;;2.40;;
41921;SDS011;27609;51.002;5.354;2023-09-19T03:13:56;15.07;;;3.30;;
41921;SDS011;27609;51.002;5.354;2023-09-19T03:16:23;13.23;;;3.22;;
41921;SDS011;27609;51.002;5.354;2023-09-19T03:18:49;10.38;;;2.30;;
41921;SDS011;27609;51.002;5.354;2023-09-19T03:21:15;12.15;;;2.75;;
41921;SDS011;27609;51.002;5.354;2023-09-19T03:23:42;8.20;;;2.00;;
41921;SDS011;27609;51.002;5.354;2023-09-19T03:26:10;12.07;;;2.55;;
41921;SDS011;27609;51.002;5.354;2023-09-19T03:28:37;11.07;;;2.58;;
41921;SDS011;27609;51.002;5.354;2023-09-19T03:31:04;14.93;;;2.75;;
41921;SDS011;27609;51.002;5.354;2023-09-19T03:33:31;10.35;;;2.10;;
41921;SDS011;27609;51.002;5.354;2023-09-19T03:35:58;14.00;;;2.20;;
41921;SDS011;27609;51.002;5.354;2023-09-19T03:38:24;7.57;;;2.33;;
41921;SDS011;27609;51.002;5.354;2023-09-19T03:40:56;15.02;;;2.88;;
41921;SDS011;27609;51.002;5.354;2023-09-19T03:43:22;10.80;;;1.92;;
41921;SDS011;27609;51.002;5.354;2023-09-19T03:45:47;13.00;;;1.90;;
41921;SDS011;27609;51.002;5.354;2023-09-19T03:48:14;12.00;;;2.13;;
41921;SDS011;27609;51.002;5.354;2023-09-19T03:50:40;9.13;;;2.58;;
41921;SDS011;27609;51.002;5.354;2023-09-19T03:53:05;12.23;;;2.50;;
41921;SDS011;27609;51.002;5.354;2023-09-19T03:55:34;10.00;;;2.95;;
41921;SDS011;27609;51.002;5.354;2023-09-19T03:58:00;11.63;;;2.53;;
41921;SDS011;27609;51.002;5.354;2023-09-19T04:00:27;10.60;;;1.83;;
41921;SDS011;27609;51.002;5.354;2023-09-19T04:02:54;14.95;;;2.28;;
41921;SDS011;27609;51.002;5.354;2023-09-19T04:05:21;13.02;;;2.10;;
41921;SDS011;27609;51.002;5.354;2023-09-19T04:07:47;5.65;;;2.05;;
41921;SDS011;27609;51.002;5.354;2023-09-19T04:10:13;10.45;;;2.22;;
41921;SDS011;27609;51.002;5.354;2023-09-19T04:12:39;10.88;;;2.40;;
41921;SDS011;27609;51.002;5.354;2023-09-19T04:15:05;9.77;;;2.20;;
41921;SDS011;27609;51.002;5.354;2023-09-19T04:17:32;12.15;;;2.25;;
41921;SDS011;27609;51.002;5.354;2023-09-19T04:19:58;14.15;;;2.03;;
41921;SDS011;27609;51.002;5.354;2023-09-19T04:22:24;10.73;;;1.92;;
41921;SDS011;27609;51.002;5.354;2023-09-19T04:24:50;10.68;;;2.20;;
41921;SDS011;27609;51.002;5.354;2023-09-19T04:27:16;8.98;;;2.17;;
41921;SDS011;27609;51.002;5.354;2023-09-19T04:29:42;11.27;;;2.08;;
41921;SDS011;27609;51.002;5.354;2023-09-19T04:32:08;9.25;;;2.00;;
41921;SDS011;27609;51.002;5.354;2023-09-19T04:34:34;10.25;;;1.88;;
41921;SDS011;27609;51.002;5.354;2023-09-19T04:37:00;9.07;;;2.13;;
41921;SDS011;27609;51.002;5.354;2023-09-19T04:39:27;10.57;;;2.47;;
41921;SDS011;27609;51.002;5.354;2023-09-19T04:41:53;12.80;;;2.20;;
41921;SDS011;27609;51.002;5.354;2023-09-19T04:44:19;16.20;;;2.30;;
41921;SDS011;27609;51.002;5.354;2023-09-19T04:46:46;10.23;;;2.00;;
41921;SDS011;27609;51.002;5.354;2023-09-19T04:49:12;8.90;;;2.25;;
41921;SDS011;27609;51.002;5.354;2023-09-19T04:51:38;12.18;;;2.88;;
41921;SDS011;27609;51.002;5.354;2023-09-19T04:54:05;10.70;;;2.28;;
41921;SDS011;27609;51.002;5.354;2023-09-19T04:56:31;8.80;;;1.75;;
41921;SDS011;27609;51.002;5.354;2023-09-19T04:58:57;9.45;;;2.80;;
41921;SDS011;27609;51.002;5.354;2023-09-19T05:01:24;10.82;;;2.40;;
41921;SDS011;27609;51.002;5.354;2023-09-19T05:03:50;11.13;;;2.38;;
41921;SDS011;27609;51.002;5.354;2023-09-19T05:06:18;8.95;;;2.22;;
41921;SDS011;27609;51.002;5.354;2023-09-19T05:08:46;8.65;;;2.47;;
41921;SDS011;27609;51.002;5.354;2023-09-19T05:11:15;4.97;;;1.58;;
41921;SDS011;27609;51.002;5.354;2023-09-19T05:13:40;8.15;;;2.00;;
41921;SDS011;27609;51.002;5.354;2023-09-19T05:16:06;13.50;;;2.33;;
41921;SDS011;27609;51.002;5.354;2023-09-19T05:18:35;15.35;;;2.30;;
41921;SDS011;27609;51.002;5.354;2023-09-19T05:21:04;16.73;;;2.78;;
41921;SDS011;27609;51.002;5.354;2023-09-19T05:23:30;6.18;;;1.92;;
41921;SDS011;27609;51.002;5.354;2023-09-19T05:25:56;8.63;;;3.03;;
41921;SDS011;27609;51.002;5.354;2023-09-19T05:28:23;9.10;;;2.38;;
41921;SDS011;27609;51.002;5.354;2023-09-19T05:30:49;8.00;;;2.03;;
41921;SDS011;27609;51.002;5.354;2023-09-19T05:33:15;7.00;;;1.50;;
41921;SDS011;27609;51.002;5.354;2023-09-19T05:35:40;9.02;;;2.55;;
41921;SDS011;27609;51.002;5.354;2023-09-19T05:38:06;18.30;;;2.40;;
41921;SDS011;27609;51.002;5.354;2023-09-19T05:40:34;17.17;;;2.78;;
41921;SDS011;27609;51.002;5.354;2023-09-19T05:43:00;11.13;;;2.15;;
41921;SDS011;27609;51.002;5.354;2023-09-19T05:45:27;13.48;;;2.22;;
41921;SDS011;27609;51.002;5.354;2023-09-19T05:47:53;14.35;;;2.47;;
41921;SDS011;27609;51.002;5.354;2023-09-19T05:50:29;13.55;;;2.17;;
41921;SDS011;27609;51.002;5.354;2023-09-19T05:52:56;14.65;;;2.70;;
41921;SDS011;27609;51.002;5.354;2023-09-19T05:55:21;16.65;;;2.50;;
41921;SDS011;27609;51.002;5.354;2023-09-19T05:57:53;15.80;;;1.95;;
41921;SDS011;27609;51.002;5.354;2023-09-19T06:00:22;11.63;;;1.98;;
41921;SDS011;27609;51.002;5.354;2023-09-19T06:02:52;9.48;;;2.75;;
41921;SDS011;27609;51.002;5.354;2023-09-19T06:05:19;17.88;;;2.70;;
41921;SDS011;27609;51.002;5.354;2023-09-19T06:07:46;11.88;;;3.72;;
41921;SDS011;27609;51.002;5.354;2023-09-19T06:10:12;9.55;;;3.10;;
41921;SDS011;27609;51.002;5.354;2023-09-19T06:12:39;9.52;;;2.35;;
41921;SDS011;27609;51.002;5.354;2023-09-19T06:15:10;11.45;;;2.20;;
41921;SDS011;27609;51.002;5.354;2023-09-19T06:17:50;10.90;;;2.47;;
41921;SDS011;27609;51.002;5.354;2023-09-19T06:20:20;10.60;;;2.42;;
41921;SDS011;27609;51.002;5.354;2023-09-19T06:22:47;10.88;;;2.28;;
41921;SDS011;27609;51.002;5.354;2023-09-19T06:25:14;7.15;;;2.13;;
41921;SDS011;27609;51.002;5.354;2023-09-19T06:27:47;13.52;;;2.00;;
41921;SDS011;27609;51.002;5.354;2023-09-19T06:30:14;9.45;;;2.10;;
41921;SDS011;27609;51.002;5.354;2023-09-19T06:32:40;9.55;;;1.85;;
41921;SDS011;27609;51.002;5.354;2023-09-19T06:35:09;13.10;;;2.30;;
41921;SDS011;27609;51.002;5.354;2023-09-19T06:37:38;11.93;;;2.17;;
41921;SDS011;27609;51.002;5.354;2023-09-19T06:40:08;9.07;;;2.25;;
41921;SDS011;27609;51.002;5.354;2023-09-19T06:42:38;9.57;;;2.40;;
41921;SDS011;27609;51.002;5.354;2023-09-19T06:45:13;9.00;;;1.73;;
41921;SDS011;27609;51.002;5.354;2023-09-19T06:47:47;14.73;;;3.92;;
41921;SDS011;27609;51.002;5.354;2023-09-19T06:50:20;11.68;;;2.60;;
41921;SDS011;27609;51.002;5.354;2023-09-19T06:52:50;10.35;;;2.15;;
41921;SDS011;27609;51.002;5.354;2023-09-19T06:55:18;13.27;;;2.05;;
41921;SDS011;27609;51.002;5.354;2023-09-19T06:57:45;12.65;;;2.50;;
41921;SDS011;27609;51.002;5.354;2023-09-19T07:00:12;14.70;;;2.20;;
41921;SDS011;27609;51.002;5.354;2023-09-19T07:05:30;8.65;;;2.22;;
41921;SDS011;27609;51.002;5.354;2023-09-19T07:07:56;11.27;;;2.05;;
41921;SDS011;27609;51.002;5.354;2023-09-19T07:10:28;5.93;;;1.50;;
41921;SDS011;27609;51.002;5.354;2023-09-19T07:12:58;8.15;;;1.60;;
41921;SDS011;27609;51.002;5.354;2023-09-19T07:15:24;7.97;;;2.50;;
41921;SDS011;27609;51.002;5.354;2023-09-19T07:17:51;10.55;;;2.65;;
41921;SDS011;27609;51.002;5.354;2023-09-19T07:20:18;7.35;;;1.65;;
41921;SDS011;27609;51.002;5.354;2023-09-19T07:22:45;8.75;;;1.58;;
41921;SDS011;27609;51.002;5.354;2023-09-19T07:25:12;11.25;;;2.15;;
41921;SDS011;27609;51.002;5.354;2023-09-19T07:27:39;11.23;;;2.17;;
41921;SDS011;27609;51.002;5.354;2023-09-19T07:30:09;16.13;;;2.67;;
41921;SDS011;27609;51.002;5.354;2023-09-19T07:32:36;6.10;;;1.70;;
41921;SDS011;27609;51.002;5.354;2023-09-19T07:35:03;12.52;;;2.65;;
41921;SDS011;27609;51.002;5.354;2023-09-19T07:37:32;5.65;;;1.90;;
41921;SDS011;27609;51.002;5.354;2023-09-19T07:40:02;10.75;;;2.40;;
41921;SDS011;27609;51.002;5.354;2023-09-19T07:42:32;10.55;;;2.65;;
41921;SDS011;27609;51.002;5.354;2023-09-19T07:45:00;13.02;;;2.13;;
41921;SDS011;27609;51.002;5.354;2023-09-19T07:47:26;10.98;;;2.38;;
41921;SDS011;27609;51.002;5.354;2023-09-19T07:49:52;8.75;;;2.22;;
41921;SDS011;27609;51.002;5.354;2023-09-19T07:52:19;7.68;;;1.80;;
41921;SDS011;27609;51.002;5.354;2023-09-19T07:54:47;13.43;;;2.35;;
41921;SDS011;27609;51.002;5.354;2023-09-19T07:57:14;10.57;;;2.17;;
41921;SDS011;27609;51.002;5.354;2023-09-19T07:59:41;5.65;;;1.55;;
41921;SDS011;27609;51.002;5.354;2023-09-19T08:02:07;4.78;;;1.85;;
41921;SDS011;27609;51.002;5.354;2023-09-19T08:04:40;18.77;;;1.70;;
41921;SDS011;27609;51.002;5.354;2023-09-19T08:07:07;9.57;;;1.83;;
41921;SDS011;27609;51.002;5.354;2023-09-19T08:09:33;11.68;;;2.10;;
41921;SDS011;27609;51.002;5.354;2023-09-19T08:11:59;6.95;;;1.85;;
41921;SDS011;27609;51.002;5.354;2023-09-19T08:14:28;18.77;;;2.45;;
41921;SDS011;27609;51.002;5.354;2023-09-19T08:16:57;9.32;;;2.28;;
41921;SDS011;27609;51.002;5.354;2023-09-19T08:19:24;11.43;;;1.73;;
41921;SDS011;27609;51.002;5.354;2023-09-19T08:21:56;7.25;;;1.70;;
41921;SDS011;27609;51.002;5.354;2023-09-19T08:24:24;10.98;;;1.85;;
41921;SDS011;27609;51.002;5.354;2023-09-19T08:26:52;9.18;;;1.85;;
41921;SDS011;27609;51.002;5.354;2023-09-19T08:29:19;13.23;;;1.92;;
41921;SDS011;27609;51.002;5.354;2023-09-19T08:31:45;8.30;;;2.33;;
41921;SDS011;27609;51.002;5.354;2023-09-19T08:34:14;10.18;;;2.25;;
41921;SDS011;27609;51.002;5.354;2023-09-19T08:36:40;6.72;;;1.95;;
41921;SDS011;27609;51.002;5.354;2023-09-19T08:39:08;7.75;;;1.88;;
41921;SDS011;27609;51.002;5.354;2023-09-19T08:41:34;11.05;;;1.80;;
41921;SDS011;27609;51.002;5.354;2023-09-19T08:43:59;10.75;;;1.92;;
41921;SDS011;27609;51.002;5.354;2023-09-19T08:46:28;11.73;;;2.70;;
41921;SDS011;27609;51.002;5.354;2023-09-19T08:49:19;7.63;;;2.42;;
41921;SDS011;27609;51.002;5.354;2023-09-19T08:51:51;9.85;;;1.92;;
41921;SDS011;27609;51.002;5.354;2023-09-19T08:54:26;10.85;;;2.42;;
41921;SDS011;27609;51.002;5.354;2023-09-19T08:56:58;10.15;;;1.60;;
41921;SDS011;27609;51.002;5.354;2023-09-19T08:59:33;14.60;;;3.22;;
41921;SDS011;27609;51.002;5.354;2023-09-19T09:02:00;10.05;;;2.25;;
41921;SDS011;27609;51.002;5.354;2023-09-19T09:04:26;11.18;;;2.10;;
41921;SDS011;27609;51.002;5.354;2023-09-19T09:06:53;11.98;;;2.28;;
41921;SDS011;27609;51.002;5.354;2023-09-19T09:09:20;13.20;;;2.08;;
41921;SDS011;27609;51.002;5.354;2023-09-19T09:11:46;9.30;;;2.20;;
41921;SDS011;27609;51.002;5.354;2023-09-19T09:14:13;4.40;;;1.58;;
41921;SDS011;27609;51.002;5.354;2023-09-19T09:16:39;8.32;;;1.90;;
41921;SDS011;27609;51.002;5.354;2023-09-19T09:19:05;8.27;;;2.05;;
41921;SDS011;27609;51.002;5.354;2023-09-19T09:21:30;4.95;;;1.55;;
41921;SDS011;27609;51.002;5.354;2023-09-19T09:26:45;6.70;;;1.77;;
41921;SDS011;27609;51.002;5.354;2023-09-19T09:29:12;7.50;;;2.72;;
41921;SDS011;27609;51.002;5.354;2023-09-19T09:31:38;7.45;;;1.63;;
41921;SDS011;27609;51.002;5.354;2023-09-19T09:34:07;11.13;;;2.57;;
41921;SDS011;27609;51.002;5.354;2023-09-19T09:36:34;7.85;;;2.58;;
41921;SDS011;27609;51.002;5.354;2023-09-19T09:39:01;8.10;;;1.90;;
41921;SDS011;27609;51.002;5.354;2023-09-19T09:41:41;10.40;;;1.92;;
41921;SDS011;27609;51.002;5.354;2023-09-19T09:44:17;10.18;;;1.90;;
41921;SDS011;27609;51.002;5.354;2023-09-19T09:46:44;5.68;;;2.35;;
41921;SDS011;27609;51.002;5.354;2023-09-19T09:49:24;10.43;;;1.90;;
41921;SDS011;27609;51.002;5.354;2023-09-19T09:52:05;8.15;;;2.53;;
41921;SDS011;27609;51.002;5.354;2023-09-19T09:54:33;5.13;;;1.67;;
41921;SDS011;27609;51.002;5.354;2023-09-19T09:57:07;6.07;;;1.73;;
41921;SDS011;27609;51.002;5.354;2023-09-19T10:02:15;9.73;;;1.48;;
41921;SDS011;27609;51.002;5.354;2023-09-19T10:04:49;13.95;;;1.98;;
41921;SDS011;27609;51.002;5.354;2023-09-19T10:07:50;6.95;;;2.03;;
41921;SDS011;27609;51.002;5.354;2023-09-19T10:10:34;10.43;;;1.88;;
41921;SDS011;27609;51.002;5.354;2023-09-19T10:13:19;7.15;;;2.22;;
41921;SDS011;27609;51.002;5.354;2023-09-19T10:15:49;8.10;;;2.13;;
41921;SDS011;27609;51.002;5.354;2023-09-19T10:18:22;10.27;;;2.10;;
41921;SDS011;27609;51.002;5.354;2023-09-19T10:20:50;10.05;;;2.65;;
41921;SDS011;27609;51.002;5.354;2023-09-19T10:23:20;8.50;;;2.25;;
41921;SDS011;27609;51.002;5.354;2023-09-19T10:25:51;7.07;;;1.95;;
41921;SDS011;27609;51.002;5.354;2023-09-19T10:28:17;4.60;;;2.00;;
41921;SDS011;27609;51.002;5.354;2023-09-19T10:30:48;11.32;;;2.50;;
41921;SDS011;27609;51.002;5.354;2023-09-19T10:33:19;9.57;;;1.80;;
41921;SDS011;27609;51.002;5.354;2023-09-19T10:35:51;6.15;;;1.98;;
41921;SDS011;27609;51.002;5.354;2023-09-19T10:38:23;7.20;;;2.10;;
41921;SDS011;27609;51.002;5.354;2023-09-19T10:40:50;6.03;;;1.63;;
41921;SDS011;27609;51.002;5.354;2023-09-19T10:43:18;10.35;;;2.08;;
41921;SDS011;27609;51.002;5.354;2023-09-19T10:45:46;6.55;;;1.55;;
41921;SDS011;27609;51.002;5.354;2023-09-19T10:48:17;9.35;;;2.28;;
41921;SDS011;27609;51.002;5.354;2023-09-19T10:53:14;5.57;;;1.77;;
41921;SDS011;27609;51.002;5.354;2023-09-19T10:55:42;6.78;;;1.90;;
41921;SDS011;27609;51.002;5.354;2023-09-19T10:58:30;7.05;;;1.70;;
41921;SDS011;27609;51.002;5.354;2023-09-19T11:01:04;10.77;;;1.95;;
41921;SDS011;27609;51.002;5.354;2023-09-19T11:03:40;6.95;;;1.50;;
41921;SDS011;27609;51.002;5.354;2023-09-19T11:06:10;6.40;;;1.45;;
41921;SDS011;27609;51.002;5.354;2023-09-19T11:14:13;8.02;;;1.63;;
41921;SDS011;27609;51.002;5.354;2023-09-19T11:30:40;10.02;;;1.95;;
41921;SDS011;27609;51.002;5.354;2023-09-19T11:33:20;4.88;;;1.45;;
41921;SDS011;27609;51.002;5.354;2023-09-19T11:43:49;4.78;;;1.40;;
41921;SDS011;27609;51.002;5.354;2023-09-19T11:46:16;4.72;;;1.00;;
41921;SDS011;27609;51.002;5.354;2023-09-19T11:48:47;8.18;;;1.33;;
41921;SDS011;27609;51.002;5.354;2023-09-19T11:51:18;4.07;;;1.00;;
41921;SDS011;27609;51.002;5.354;2023-09-19T11:53:47;3.80;;;1.55;;
41921;SDS011;27609;51.002;5.354;2023-09-19T11:56:27;10.40;;;1.25;;
41921;SDS011;27609;51.002;5.354;2023-09-19T11:58:54;4.22;;;1.38;;
41921;SDS011;27609;51.002;5.354;2023-09-19T12:01:24;4.80;;;1.08;;
41921;SDS011;27609;51.002;5.354;2023-09-19T12:03:56;3.47;;;1.10;;
41921;SDS011;27609;51.002;5.354;2023-09-19T12:06:24;6.20;;;1.25;;
41921;SDS011;27609;51.002;5.354;2023-09-19T12:08:51;4.22;;;0.90;;
41921;SDS011;27609;51.002;5.354;2023-09-19T12:11:19;3.15;;;1.02;;
41921;SDS011;27609;51.002;5.354;2023-09-19T12:13:46;3.05;;;0.70;;
41921;SDS011;27609;51.002;5.354;2023-09-19T12:16:17;3.00;;;0.75;;
41921;SDS011;27609;51.002;5.354;2023-09-19T12:18:47;2.63;;;0.70;;
41921;SDS011;27609;51.002;5.354;2023-09-19T12:26:43;6.85;;;1.25;;
41921;SDS011;27609;51.002;5.354;2023-09-19T12:29:19;4.63;;;1.02;;
41921;SDS011;27609;51.002;5.354;2023-09-19T12:31:50;1.92;;;0.95;;
41921;SDS011;27609;51.002;5.354;2023-09-19T12:34:26;3.10;;;0.75;;
41921;SDS011;27609;51.002;5.354;2023-09-19T12:39:45;2.38;;;1.00;;
41921;SDS011;27609;51.002;5.354;2023-09-19T12:42:14;1.95;;;0.90;;
41921;SDS011;27609;51.002;5.354;2023-09-19T12:44:42;5.95;;;1.02;;
41921;SDS011;27609;51.002;5.354;2023-09-19T12:47:12;2.92;;;1.00;;
41921;SDS011;27609;51.002;5.354;2023-09-19T12:52:39;3.60;;;1.27;;
41921;SDS011;27609;51.002;5.354;2023-09-19T12:55:06;5.03;;;0.85;;
41921;SDS011;27609;51.002;5.354;2023-09-19T12:57:34;4.82;;;0.80;;
41921;SDS011;27609;51.002;5.354;2023-09-19T13:00:02;4.53;;;0.77;;
41921;SDS011;27609;51.002;5.354;2023-09-19T13:02:35;4.85;;;0.70;;
41921;SDS011;27609;51.002;5.354;2023-09-19T13:05:01;4.40;;;1.00;;
41921;SDS011;27609;51.002;5.354;2023-09-19T13:07:44;5.22;;;1.10;;
41921;SDS011;27609;51.002;5.354;2023-09-19T13:10:14;2.35;;;0.60;;
41921;SDS011;27609;51.002;5.354;2023-09-19T13:12:41;3.63;;;0.68;;
41921;SDS011;27609;51.002;5.354;2023-09-19T13:17:45;3.65;;;0.93;;
41921;SDS011;27609;51.002;5.354;2023-09-19T13:20:23;2.55;;;0.75;;
41921;SDS011;27609;51.002;5.354;2023-09-19T13:22:53;5.80;;;0.73;;
41921;SDS011;27609;51.002;5.354;2023-09-19T13:25:23;1.50;;;0.70;;
41921;SDS011;27609;51.002;5.354;2023-09-19T13:27:53;3.88;;;0.80;;
41921;SDS011;27609;51.002;5.354;2023-09-19T13:30:24;2.10;;;0.63;;
41921;SDS011;27609;51.002;5.354;2023-09-19T13:32:51;6.82;;;1.10;;
41921;SDS011;27609;51.002;5.354;2023-09-19T13:35:19;5.07;;;0.93;;
41921;SDS011;27609;51.002;5.354;2023-09-19T13:37:46;2.50;;;1.08;;
41921;SDS011;27609;51.002;5.354;2023-09-19T13:40:16;1.98;;;0.50;;
41921;SDS011;27609;51.002;5.354;2023-09-19T13:42:42;5.70;;;0.90;;
41921;SDS011;27609;51.002;5.354;2023-09-19T13:45:08;3.38;;;0.82;;
41921;SDS011;27609;51.002;5.354;2023-09-19T13:47:40;2.88;;;0.90;;
41921;SDS011;27609;51.002;5.354;2023-09-19T13:50:06;6.70;;;0.88;;
41921;SDS011;27609;51.002;5.354;2023-09-19T13:52:32;3.00;;;0.85;;
41921;SDS011;27609;51.002;5.354;2023-09-19T13:54:58;3.22;;;1.15;;
41921;SDS011;27609;51.002;5.354;2023-09-19T13:57:24;3.40;;;0.70;;
41921;SDS011;27609;51.002;5.354;2023-09-19T13:59:51;2.00;;;0.70;;
41921;SDS011;27609;51.002;5.354;2023-09-19T14:02:21;5.47;;;0.90;;
41921;SDS011;27609;51.002;5.354;2023-09-19T14:04:50;2.30;;;1.05;;
41921;SDS011;27609;51.002;5.354;2023-09-19T14:07:18;2.72;;;0.80;;
41921;SDS011;27609;51.002;5.354;2023-09-19T14:09:45;3.10;;;0.65;;
41921;SDS011;27609;51.002;5.354;2023-09-19T14:12:10;7.10;;;0.90;;
41921;SDS011;27609;51.002;5.354;2023-09-19T14:14:37;4.28;;;1.10;;
41921;SDS011;27609;51.002;5.354;2023-09-19T14:17:05;3.85;;;0.90;;
41921;SDS011;27609;51.002;5.354;2023-09-19T14:19:32;3.15;;;0.90;;
41921;SDS011;27609;51.002;5.354;2023-09-19T14:21:58;2.58;;;0.80;;
41921;SDS011;27609;51.002;5.354;2023-09-19T14:24:25;2.03;;;0.80;;
41921;SDS011;27609;51.002;5.354;2023-09-19T14:26:51;4.63;;;1.27;;
41921;SDS011;27609;51.002;5.354;2023-09-19T14:29:16;3.10;;;0.70;;
41921;SDS011;27609;51.002;5.354;2023-09-19T14:31:42;6.65;;;0.98;;
41921;SDS011;27609;51.002;5.354;2023-09-19T14:34:08;5.00;;;1.10;;
41921;SDS011;27609;51.002;5.354;2023-09-19T14:36:35;2.33;;;0.93;;
41921;SDS011;27609;51.002;5.354;2023-09-19T14:39:01;5.63;;;1.00;;
41921;SDS011;27609;51.002;5.354;2023-09-19T14:41:27;3.38;;;1.10;;
41921;SDS011;27609;51.002;5.354;2023-09-19T14:43:53;9.20;;;1.48;;
41921;SDS011;27609;51.002;5.354;2023-09-19T14:46:20;2.22;;;0.80;;
41921;SDS011;27609;51.002;5.354;2023-09-19T14:48:46;7.40;;;1.50;;
41921;SDS011;27609;51.002;5.354;2023-09-19T14:51:16;5.15;;;0.90;;
41921;SDS011;27609;51.002;5.354;2023-09-19T14:53:43;3.35;;;1.13;;
41921;SDS011;27609;51.002;5.354;2023-09-19T14:56:10;2.83;;;1.02;;
41921;SDS011;27609;51.002;5.354;2023-09-19T14:58:36;6.25;;;0.90;;
41921;SDS011;27609;51.002;5.354;2023-09-19T15:03:33;4.30;;;1.08;;
41921;SDS011;27609;51.002;5.354;2023-09-19T15:06:04;6.88;;;1.13;;
41921;SDS011;27609;51.002;5.354;2023-09-19T15:08:32;7.47;;;1.60;;
41921;SDS011;27609;51.002;5.354;2023-09-19T15:11:03;2.90;;;0.80;;
41921;SDS011;27609;51.002;5.354;2023-09-19T15:13:32;5.53;;;1.40;;
41921;SDS011;27609;51.002;5.354;2023-09-19T15:16:02;4.88;;;0.90;;
41921;SDS011;27609;51.002;5.354;2023-09-19T15:21:02;1.83;;;0.80;;
41921;SDS011;27609;51.002;5.354;2023-09-19T15:23:37;5.05;;;1.13;;
41921;SDS011;27609;51.002;5.354;2023-09-19T15:26:04;4.07;;;1.35;;
41921;SDS011;27609;51.002;5.354;2023-09-19T15:28:31;3.25;;;0.75;;
41921;SDS011;27609;51.002;5.354;2023-09-19T15:31:00;1.63;;;0.55;;
41921;SDS011;27609;51.002;5.354;2023-09-19T15:36:08;3.38;;;1.10;;
41921;SDS011;27609;51.002;5.354;2023-09-19T15:41:37;9.90;;;1.35;;
41921;SDS011;27609;51.002;5.354;2023-09-19T15:44:04;5.60;;;1.50;;
41921;SDS011;27609;51.002;5.354;2023-09-19T15:46:35;5.43;;;1.30;;
41921;SDS011;27609;51.002;5.354;2023-09-19T15:49:02;3.42;;;0.90;;
41921;SDS011;27609;51.002;5.354;2023-09-19T15:51:28;6.38;;;1.30;;
41921;SDS011;27609;51.002;5.354;2023-09-19T15:53:54;3.55;;;1.13;;
41921;SDS011;27609;51.002;5.354;2023-09-19T15:56:21;4.43;;;1.05;;
41921;SDS011;27609;51.002;5.354;2023-09-19T15:58:48;4.68;;;1.38;;
41921;SDS011;27609;51.002;5.354;2023-09-19T16:01:20;3.90;;;1.15;;
41921;SDS011;27609;51.002;5.354;2023-09-19T16:03:47;8.32;;;1.33;;
41921;SDS011;27609;51.002;5.354;2023-09-19T16:06:24;3.00;;;1.10;;
41921;SDS011;27609;51.002;5.354;2023-09-19T16:08:52;3.53;;;0.88;;